X  Sluiten METAR luchtvaart weer gegevens      EHRD Rotterdam The Hague Airport
Temperatuur
17°C Temperatuur
13°C Dauwpunt
77% Vochtigheid



Wind
23 KM/U
14 MPH
6 M/S
12 KTS



180°
Zuid
Huidig weer

Wat bewolking Wat bewolking
Luchtdruk 1005.08 (hPa) - 29.68 (inHg)
Zicht 6 (mijl) - 9.7 (km)
Vliegveld
Vliegveld code EHRD

Locatie : Rotterdam The Hague Airport
Afstand: 19 (km)

Metar:
EHRD 141355Z AUTO 18012KT 150V210 9999 FEW016CB SCT018 OVC033 17/13 Q1005 TEMPO 4500 RADZ

Tijd: 14-06-2024 13:55 CEST